createdAt,value
2022-08-28T00:00:14.283Z,17.97
2022-08-28T00:02:41.467Z,17.95
2022-08-28T00:05:09.179Z,17.95
2022-08-28T00:07:35.867Z,17.92
2022-08-28T00:10:02.427Z,17.93
2022-08-28T00:12:28.995Z,17.99
2022-08-28T00:14:55.640Z,17.97
2022-08-28T00:17:22.300Z,17.98
2022-08-28T00:19:49.173Z,17.95
2022-08-28T00:22:16.112Z,18.00
2022-08-28T00:24:44.618Z,18.00
2022-08-28T00:27:30.010Z,17.93
2022-08-28T00:29:56.534Z,17.98
2022-08-28T00:32:23.618Z,17.96
2022-08-28T00:34:51.055Z,18.00
2022-08-28T00:37:18.527Z,17.93
2022-08-28T00:39:45.166Z,17.95
2022-08-28T00:42:12.137Z,17.93
2022-08-28T00:44:38.680Z,17.87
2022-08-28T00:47:05.308Z,17.81
2022-08-28T00:49:36.011Z,17.86
2022-08-28T00:52:05.942Z,17.84
2022-08-28T00:54:35.810Z,17.80
2022-08-28T00:57:04.484Z,17.77
2022-08-28T00:59:31.022Z,17.76
2022-08-28T01:01:58.859Z,17.74
2022-08-28T01:04:29.687Z,17.77
2022-08-28T01:06:58.209Z,17.77
2022-08-28T01:09:28.136Z,17.67
2022-08-28T01:11:58.385Z,17.68
2022-08-28T01:14:26.659Z,17.68
2022-08-28T01:16:57.615Z,17.56
2022-08-28T01:19:31.523Z,17.57
2022-08-28T01:22:30.938Z,17.57
2022-08-28T01:25:01.331Z,17.54
2022-08-28T01:27:28.221Z,17.46
2022-08-28T01:29:55.368Z,17.53
2022-08-28T01:32:40.775Z,17.49
2022-08-28T01:35:10.529Z,17.44
2022-08-28T01:37:38.068Z,17.42
2022-08-28T01:40:06.840Z,17.43
2022-08-28T01:42:41.476Z,17.33
2022-08-28T01:45:11.387Z,17.23
2022-08-28T01:47:39.210Z,17.26
2022-08-28T01:50:08.168Z,17.21
2022-08-28T01:52:36.310Z,17.19
2022-08-28T01:55:08.082Z,17.17
2022-08-28T01:57:35.372Z,17.26
2022-08-28T02:00:02.003Z,17.13
2022-08-28T02:02:28.794Z,17.02
2022-08-28T02:04:55.401Z,17.09
2022-08-28T02:07:21.914Z,17.09
2022-08-28T02:09:48.579Z,17.11
2022-08-28T02:12:15.283Z,17.12
2022-08-28T02:14:41.801Z,17.14
2022-08-28T02:17:08.519Z,17.15
2022-08-28T02:19:35.475Z,17.20
2022-08-28T02:22:04.056Z,17.13
2022-08-28T02:24:30.682Z,17.17
2022-08-28T02:26:57.146Z,17.21
2022-08-28T02:29:23.674Z,17.22
2022-08-28T02:31:50.307Z,17.26
2022-08-28T02:34:16.916Z,17.21
2022-08-28T02:36:45.695Z,17.13
2022-08-28T02:39:12.266Z,17.20
2022-08-28T02:41:39.290Z,17.17
2022-08-28T02:44:05.903Z,17.16
2022-08-28T02:46:33.402Z,17.16
2022-08-28T02:49:00.058Z,17.20
2022-08-28T02:51:30.294Z,17.25
2022-08-28T02:53:56.861Z,17.21
2022-08-28T02:56:23.421Z,17.25
2022-08-28T02:58:50.059Z,17.22
2022-08-28T03:01:16.727Z,17.19
2022-08-28T03:03:44.571Z,17.24
2022-08-28T03:06:12.811Z,17.27
2022-08-28T03:08:41.823Z,17.26
2022-08-28T03:11:08.667Z,17.18
2022-08-28T03:13:35.329Z,17.24
2022-08-28T03:16:02.173Z,17.21
2022-08-28T03:18:33.020Z,17.15
2022-08-28T03:21:00.023Z,17.20
2022-08-28T03:23:26.658Z,17.17
2022-08-28T03:26:18.671Z,17.12
2022-08-28T03:28:51.044Z,17.10
2022-08-28T03:31:20.701Z,17.04
2022-08-28T03:33:47.982Z,17.08
2022-08-28T03:36:19.209Z,17.11
2022-08-28T03:38:45.964Z,17.09
2022-08-28T03:41:15.002Z,17.08
2022-08-28T03:43:42.600Z,17.04
2022-08-28T03:46:13.968Z,17.06
2022-08-28T03:48:44.721Z,16.98
2022-08-28T03:51:15.433Z,17.04
2022-08-28T03:53:42.574Z,16.92
2022-08-28T03:56:16.159Z,16.92
2022-08-28T03:58:43.415Z,16.91
2022-08-28T04:01:10.189Z,16.89
2022-08-28T04:03:37.431Z,16.88
2022-08-28T04:06:04.223Z,16.80
2022-08-28T04:08:30.926Z,16.82
2022-08-28T04:10:59.596Z,16.72
2022-08-28T04:13:26.902Z,16.58
2022-08-28T04:16:01.370Z,16.66
2022-08-28T04:18:29.177Z,16.66
2022-08-28T04:21:08.028Z,16.67
2022-08-28T04:23:36.382Z,16.63
2022-08-28T04:26:06.311Z,16.61
2022-08-28T04:28:33.420Z,16.59
2022-08-28T04:31:00.188Z,16.60
2022-08-28T04:33:28.234Z,16.65
2022-08-28T04:35:55.308Z,16.59
2022-08-28T04:38:21.961Z,16.62
2022-08-28T04:40:48.943Z,16.63
2022-08-28T04:43:15.457Z,16.58
2022-08-28T04:45:44.390Z,16.58
2022-08-28T04:48:13.143Z,16.60
2022-08-28T04:50:45.375Z,16.65
2022-08-28T04:53:13.340Z,16.67
2022-08-28T04:55:54.296Z,16.72
2022-08-28T04:58:24.056Z,16.75
2022-08-28T05:00:52.407Z,16.69
2022-08-28T05:03:18.985Z,16.76
2022-08-28T05:05:49.601Z,16.69
2022-08-28T05:08:17.343Z,16.76
2022-08-28T05:10:44.352Z,16.74
2022-08-28T05:13:13.317Z,16.71
2022-08-28T05:15:40.922Z,16.68
2022-08-28T05:18:08.682Z,16.66
2022-08-28T05:20:37.216Z,16.68
2022-08-28T05:23:05.917Z,16.60
2022-08-28T05:25:41.920Z,16.70
2022-08-28T05:28:12.054Z,16.67
2022-08-28T05:30:40.838Z,16.63
2022-08-28T05:33:09.073Z,16.62
2022-08-28T05:35:38.368Z,16.53
2022-08-28T05:38:05.853Z,16.56
2022-08-28T05:40:33.263Z,16.55
2022-08-28T05:42:59.891Z,16.47
2022-08-28T05:45:26.414Z,16.53
2022-08-28T05:47:52.861Z,16.49
2022-08-28T05:50:19.826Z,16.39
2022-08-28T05:52:46.658Z,16.28
2022-08-28T05:55:13.350Z,16.19
2022-08-28T05:57:41.017Z,16.23
2022-08-28T06:00:13.774Z,16.21
2022-08-28T06:02:42.093Z,16.17
2022-08-28T06:05:13.104Z,16.15
2022-08-28T06:07:41.045Z,16.05
2022-08-28T06:10:07.987Z,15.96
2022-08-28T06:12:37.436Z,15.99
2022-08-28T06:15:04.320Z,15.99
2022-08-28T06:17:31.073Z,16.04
2022-08-28T06:19:57.623Z,16.00
2022-08-28T06:22:24.105Z,16.01
2022-08-28T06:24:50.535Z,16.03
2022-08-28T06:27:17.194Z,16.18
2022-08-28T06:29:44.655Z,16.25
2022-08-28T06:32:11.292Z,16.25
2022-08-28T06:34:37.865Z,16.25
2022-08-28T06:37:04.504Z,16.17
2022-08-28T06:39:31.014Z,16.16
2022-08-28T06:41:57.488Z,16.22
2022-08-28T06:44:24.024Z,16.23
2022-08-28T06:46:52.625Z,16.25
2022-08-28T06:49:19.314Z,16.37
2022-08-28T06:51:45.886Z,16.36
2022-08-28T06:54:12.473Z,16.35
2022-08-28T06:56:39.041Z,16.25
2022-08-28T06:59:05.698Z,16.16
2022-08-28T07:01:35.258Z,16.24
2022-08-28T07:04:06.386Z,16.16
2022-08-28T07:06:35.847Z,16.20
2022-08-28T07:09:05.452Z,16.17
2022-08-28T07:11:34.550Z,16.25
2022-08-28T07:14:01.705Z,16.32
2022-08-28T07:16:34.033Z,16.30
2022-08-28T07:19:03.893Z,16.31
2022-08-28T07:21:31.350Z,16.37
2022-08-28T07:23:58.186Z,16.45
2022-08-28T07:26:26.175Z,16.51
2022-08-28T07:29:09.455Z,16.55
2022-08-28T07:31:38.362Z,16.41
2022-08-28T07:34:05.052Z,16.45
2022-08-28T07:36:31.582Z,16.58
2022-08-28T07:38:59.628Z,16.63
2022-08-28T07:41:29.981Z,16.79
2022-08-28T07:44:15.596Z,16.80
2022-08-28T07:46:42.794Z,16.75
2022-08-28T07:49:09.879Z,16.82
2022-08-28T07:51:37.134Z,16.78
2022-08-28T07:54:04.731Z,16.85
2022-08-28T07:56:32.394Z,16.84
2022-08-28T07:59:00.907Z,16.94
2022-08-28T08:01:30.750Z,17.11
2022-08-28T08:04:01.330Z,17.18
2022-08-28T08:06:34.074Z,17.36
2022-08-28T08:09:02.346Z,17.45
2022-08-28T08:11:32.506Z,17.36
2022-08-28T08:14:05.568Z,17.29
2022-08-28T08:16:39.092Z,17.36
2022-08-28T08:19:09.717Z,17.19
2022-08-28T08:21:36.808Z,17.13
2022-08-28T08:24:03.647Z,17.05
2022-08-28T08:26:30.158Z,17.10
2022-08-28T08:28:57.410Z,17.06
2022-08-28T08:31:26.738Z,17.17
2022-08-28T08:33:57.102Z,17.26
2022-08-28T08:36:26.317Z,17.46
2022-08-28T08:38:59.507Z,17.81
2022-08-28T08:41:47.899Z,18.28
2022-08-28T08:44:34.040Z,18.67
2022-08-28T08:47:14.034Z,18.99
2022-08-28T08:49:49.974Z,19.05
2022-08-28T08:52:30.222Z,19.15
2022-08-28T08:55:23.416Z,19.03
2022-08-28T08:58:11.389Z,18.92
2022-08-28T09:01:03.345Z,18.85
2022-08-28T09:03:44.414Z,18.94
2022-08-28T09:06:39.914Z,18.97
2022-08-28T09:09:17.318Z,19.17
2022-08-28T09:11:57.018Z,19.48
2022-08-28T09:14:29.735Z,19.40
2022-08-28T09:16:57.115Z,19.55
2022-08-28T09:19:23.707Z,19.42
2022-08-28T09:21:51.518Z,20.04
2022-08-28T09:24:25.156Z,21.13
2022-08-28T09:27:26.676Z,22.23
2022-08-28T09:29:57.866Z,22.51
2022-08-28T09:32:32.441Z,22.71
2022-08-28T09:35:15.832Z,23.38
2022-08-28T09:37:46.852Z,22.83
2022-08-28T09:40:51.998Z,22.43
2022-08-28T09:43:27.188Z,22.34
2022-08-28T09:45:56.005Z,22.45
2022-08-28T09:48:35.660Z,22.21
2022-08-28T09:51:14.037Z,22.49
2022-08-28T09:53:56.468Z,22.43
2022-08-28T09:56:25.505Z,22.24
2022-08-28T09:58:56.259Z,21.65
2022-08-28T10:01:44.993Z,21.47
2022-08-28T10:04:46.206Z,21.96
2022-08-28T10:07:17.194Z,21.84
2022-08-28T10:10:02.679Z,21.60
2022-08-28T10:12:59.580Z,21.87
2022-08-28T10:15:33.952Z,22.27
2022-08-28T10:18:44.319Z,21.81
2022-08-28T10:21:16.884Z,21.78
2022-08-28T10:24:11.577Z,22.57
2022-08-28T10:26:56.742Z,23.46
2022-08-28T10:29:42.198Z,24.26
2022-08-28T10:32:36.795Z,24.74
2022-08-28T10:35:15.738Z,24.58
2022-08-28T10:37:51.667Z,24.31
2022-08-28T10:40:25.262Z,24.05
2022-08-28T10:43:13.756Z,23.91
2022-08-28T10:45:41.444Z,23.43
2022-08-28T10:48:22.407Z,24.12
2022-08-28T10:51:05.778Z,24.72
2022-08-28T10:53:38.097Z,25.65
2022-08-28T10:56:13.065Z,25.62
2022-08-28T10:58:41.048Z,25.81
2022-08-28T11:01:30.537Z,26.14
2022-08-28T11:04:01.099Z,26.65
2022-08-28T11:06:34.633Z,26.48
2022-08-28T11:09:24.960Z,26.15
2022-08-28T11:12:01.066Z,25.90
2022-08-28T11:14:47.712Z,26.53
2022-08-28T11:35:01.051Z,27.60
2022-08-28T11:37:40.458Z,28.07
2022-08-28T11:40:32.459Z,28.47
2022-08-28T11:43:20.902Z,28.71
2022-08-28T11:45:47.836Z,27.41
2022-08-28T11:48:36.275Z,27.28
2022-08-28T11:51:18.099Z,27.12
2022-08-28T11:54:03.676Z,27.44
2022-08-28T11:57:09.783Z,27.05
2022-08-28T11:59:54.909Z,26.97
2022-08-28T12:02:39.965Z,27.89
2022-08-28T12:05:10.668Z,27.98
2022-08-28T12:07:39.879Z,28.19
2022-08-28T12:10:24.756Z,27.21
2022-08-28T12:12:57.473Z,27.30
2022-08-28T12:15:27.339Z,27.39
2022-08-28T12:18:01.604Z,28.17
2022-08-28T12:20:41.008Z,27.48
2022-08-28T12:23:40.940Z,26.67
2022-08-28T12:26:09.820Z,27.39
2022-08-28T12:28:45.499Z,27.35
2022-08-28T12:31:46.928Z,26.11
2022-08-28T12:34:24.290Z,26.21
2022-08-28T12:37:00.089Z,26.92
2022-08-28T12:39:29.036Z,27.65
2022-08-28T12:41:57.447Z,27.00
2022-08-28T12:44:27.278Z,26.49
2022-08-28T12:46:54.314Z,26.21
2022-08-28T12:49:36.135Z,26.62
2022-08-28T12:52:22.181Z,26.84
2022-08-28T12:54:50.954Z,27.14
2022-08-28T12:57:20.919Z,26.14
2022-08-28T12:59:54.416Z,25.33
2022-08-28T13:02:31.132Z,25.01
2022-08-28T13:05:01.695Z,25.84
2022-08-28T13:07:41.112Z,26.25
2022-08-28T13:10:35.115Z,25.71
2022-08-28T13:13:25.123Z,25.64
2022-08-28T13:15:55.915Z,25.63
2022-08-28T13:18:41.676Z,25.23
2022-08-28T13:21:17.318Z,25.59
2022-08-28T13:23:59.868Z,25.05
2022-08-28T13:26:36.218Z,25.08
2022-08-28T13:29:16.838Z,25.04
2022-08-28T13:31:44.108Z,25.16
2022-08-28T13:34:19.826Z,25.60
2022-08-28T13:36:49.229Z,25.66
2022-08-28T13:39:19.241Z,25.88
2022-08-28T13:41:49.190Z,25.41
2022-08-28T13:44:32.990Z,25.94
2022-08-28T13:47:02.326Z,26.93
2022-08-28T13:49:29.022Z,27.06
2022-08-28T13:51:58.030Z,26.28
2022-08-28T13:54:25.069Z,25.82
2022-08-28T13:56:54.159Z,25.46
2022-08-28T13:59:21.031Z,25.91
2022-08-28T14:02:06.525Z,25.44
2022-08-28T14:04:33.143Z,25.01
2022-08-28T14:06:59.684Z,25.16
2022-08-28T14:09:27.127Z,24.87
2022-08-28T14:11:55.554Z,24.78
2022-08-28T14:14:23.201Z,24.21
2022-08-28T14:16:53.428Z,23.95
2022-08-28T14:19:19.976Z,23.62
2022-08-28T14:21:46.901Z,23.62
2022-08-28T14:24:13.443Z,23.54
2022-08-28T14:26:40.479Z,23.39
2022-08-28T14:29:09.613Z,23.24
2022-08-28T14:31:37.414Z,23.19
2022-08-28T14:34:05.482Z,22.93
2022-08-28T14:36:32.679Z,22.83
2022-08-28T14:39:05.866Z,22.81
2022-08-28T14:41:33.412Z,22.67
2022-08-28T14:44:00.623Z,22.63
2022-08-28T14:46:34.030Z,22.56
2022-08-28T14:49:03.545Z,22.58
2022-08-28T14:51:32.487Z,22.48
2022-08-28T14:54:00.529Z,22.34
2022-08-28T14:56:28.453Z,22.40
2022-08-28T14:58:59.574Z,22.41
2022-08-28T15:01:39.857Z,22.42
2022-08-28T15:04:11.089Z,22.39
2022-08-28T15:06:38.371Z,22.42
2022-08-28T15:09:05.405Z,22.39
2022-08-28T15:11:32.242Z,22.37
2022-08-28T15:13:58.782Z,22.27
2022-08-28T15:16:32.219Z,22.23
2022-08-28T15:19:00.512Z,22.31
2022-08-28T15:21:33.850Z,22.30
2022-08-28T15:24:03.197Z,22.24
2022-08-28T15:26:30.798Z,22.38
2022-08-28T15:29:02.236Z,22.34
2022-08-28T15:31:34.623Z,22.40
2022-08-28T15:34:06.627Z,22.30
2022-08-28T15:36:41.792Z,22.20
2022-08-28T15:39:27.600Z,22.19
2022-08-28T15:41:54.578Z,22.04
2022-08-28T15:44:21.255Z,21.89
2022-08-28T15:46:59.578Z,21.86
2022-08-28T15:49:28.193Z,21.68
2022-08-28T15:51:56.367Z,21.71
2022-08-28T15:54:24.548Z,21.80
2022-08-28T15:56:52.698Z,21.83
2022-08-28T15:59:21.413Z,21.80
2022-08-28T16:01:50.845Z,21.75
2022-08-28T16:04:17.959Z,21.65
2022-08-28T16:06:45.045Z,21.47
2022-08-28T16:09:12.344Z,21.40
2022-08-28T16:11:41.042Z,21.32
2022-08-28T16:14:07.546Z,21.30
2022-08-28T16:16:34.224Z,21.22
2022-08-28T16:19:00.794Z,21.27
2022-08-28T16:21:28.272Z,21.33
2022-08-28T16:23:55.284Z,21.31
2022-08-28T16:26:22.470Z,21.25
2022-08-28T16:28:49.164Z,21.33
2022-08-28T16:31:19.069Z,21.40
2022-08-28T16:33:47.802Z,21.38
2022-08-28T16:36:14.988Z,21.35
2022-08-28T16:38:45.733Z,21.41
2022-08-28T16:41:18.762Z,21.43
2022-08-28T16:43:46.153Z,21.36
2022-08-28T16:46:18.256Z,21.32
2022-08-28T16:48:45.567Z,21.27
2022-08-28T16:51:12.990Z,21.24
2022-08-28T16:53:42.510Z,21.12
2022-08-28T16:56:10.506Z,21.13
2022-08-28T16:58:39.166Z,20.99
2022-08-28T17:01:06.600Z,20.80
2022-08-28T17:03:35.172Z,20.73
2022-08-28T17:06:23.720Z,20.67
2022-08-28T17:08:56.439Z,20.66
2022-08-28T17:11:25.488Z,20.47
2022-08-28T17:13:52.562Z,20.24
2022-08-28T17:16:20.509Z,20.24
2022-08-28T17:18:48.171Z,20.18
2022-08-28T17:21:38.347Z,20.13
2022-08-28T17:24:05.192Z,20.09
2022-08-28T17:26:31.673Z,19.95
2022-08-28T17:28:58.210Z,19.85
2022-08-28T17:31:24.886Z,19.72
2022-08-28T17:33:51.616Z,19.52
2022-08-28T17:36:32.481Z,19.34
2022-08-28T17:39:02.457Z,19.19
2022-08-28T17:41:28.929Z,19.17
2022-08-28T17:43:55.537Z,19.13
2022-08-28T17:46:22.573Z,19.08
2022-08-28T17:48:55.507Z,18.97
2022-08-28T17:51:33.099Z,18.86
2022-08-28T17:54:10.278Z,18.74
2022-08-28T17:56:36.735Z,18.60
2022-08-28T17:59:04.242Z,18.57
2022-08-28T18:01:30.853Z,18.44
2022-08-28T18:03:57.799Z,18.36
2022-08-28T18:06:27.115Z,18.38
2022-08-28T18:08:54.601Z,18.29
2022-08-28T18:11:21.955Z,18.26
2022-08-28T18:13:48.580Z,18.22
2022-08-28T18:16:15.759Z,18.12
2022-08-28T18:18:43.217Z,18.02
2022-08-28T18:21:11.231Z,18.06
2022-08-28T18:23:39.664Z,17.98
2022-08-28T18:26:08.579Z,17.82
2022-08-28T18:28:35.966Z,17.84
2022-08-28T18:31:05.901Z,17.78
2022-08-28T18:33:33.817Z,17.77
2022-08-28T18:36:00.763Z,17.59
2022-08-28T18:38:28.756Z,17.62
2022-08-28T18:40:56.447Z,17.61
2022-08-28T18:43:24.155Z,17.45
2022-08-28T18:45:51.719Z,17.37
2022-08-28T18:48:19.379Z,17.41
2022-08-28T18:50:50.100Z,17.28
2022-08-28T18:53:19.975Z,17.29
2022-08-28T18:55:46.754Z,17.23
2022-08-28T18:58:17.913Z,17.30
2022-08-28T19:00:45.396Z,17.13
2022-08-28T19:03:12.101Z,17.13
2022-08-28T19:05:39.092Z,17.10
2022-08-28T19:08:06.290Z,17.04
2022-08-28T19:10:34.894Z,17.03
2022-08-28T19:13:02.144Z,16.91
2022-08-28T19:15:29.332Z,17.02
2022-08-28T19:17:56.135Z,16.90
2022-08-28T19:20:23.309Z,16.89
2022-08-28T19:22:49.915Z,16.78
2022-08-28T19:25:27.964Z,16.78
2022-08-28T19:27:56.380Z,16.76
2022-08-28T19:30:26.534Z,16.68
2022-08-28T19:32:53.357Z,16.76
2022-08-28T19:35:20.070Z,16.63
2022-08-28T19:37:52.634Z,16.56
2022-08-28T19:40:23.617Z,16.53
2022-08-28T19:42:50.631Z,16.48
2022-08-28T19:45:18.161Z,16.59
2022-08-28T19:47:45.753Z,16.50
2022-08-28T19:50:14.507Z,16.42
2022-08-28T19:52:43.303Z,16.41
2022-08-28T19:55:16.511Z,16.30
2022-08-28T19:57:43.282Z,16.34
2022-08-28T20:00:10.984Z,16.39
2022-08-28T20:02:37.686Z,16.33
2022-08-28T20:05:05.501Z,16.28
2022-08-28T20:07:31.970Z,16.24
2022-08-28T20:09:58.661Z,16.26
2022-08-28T20:12:25.268Z,16.19
2022-08-28T20:14:51.881Z,16.13
2022-08-28T20:17:18.867Z,16.16
2022-08-28T20:19:46.409Z,16.14
2022-08-28T20:22:13.216Z,16.00
2022-08-28T20:24:39.819Z,15.88
2022-08-28T20:27:06.403Z,15.82
2022-08-28T20:29:36.096Z,15.80
2022-08-28T20:32:03.457Z,15.64
2022-08-28T20:34:30.092Z,15.59
2022-08-28T20:36:56.689Z,15.58
2022-08-28T20:39:23.636Z,15.72
2022-08-28T20:41:50.409Z,15.55
2022-08-28T20:44:21.367Z,15.53
2022-08-28T20:46:51.455Z,15.42
2022-08-28T20:49:24.358Z,15.40
2022-08-28T20:51:56.260Z,15.27
2022-08-28T20:54:29.010Z,15.26
2022-08-28T20:56:58.067Z,15.31
2022-08-28T20:59:34.557Z,15.22
2022-08-28T21:02:20.471Z,15.16
2022-08-28T21:04:47.889Z,15.07
2022-08-28T21:07:17.248Z,15.02
2022-08-28T21:10:07.277Z,14.99
2022-08-28T21:12:31.123Z,14.93
2022-08-28T21:14:58.171Z,14.83
2022-08-28T21:17:29.754Z,14.72
2022-08-28T21:20:02.965Z,14.72
2022-08-28T21:22:31.485Z,14.61
2022-08-28T21:24:58.510Z,14.56
2022-08-28T21:27:25.133Z,14.71
2022-08-28T21:29:55.110Z,14.65
2022-08-28T21:32:21.636Z,14.69
2022-08-28T21:34:48.158Z,14.70
2022-08-28T21:37:15.710Z,14.70
2022-08-28T21:39:42.278Z,14.79
2022-08-28T21:42:10.531Z,14.81
2022-08-28T21:44:38.196Z,14.73
2022-08-28T21:47:05.137Z,14.71
2022-08-28T21:49:31.971Z,14.58
2022-08-28T21:52:01.183Z,14.53
2022-08-28T21:54:28.283Z,14.46
2022-08-28T21:56:58.493Z,14.42
2022-08-28T21:59:25.806Z,14.33
2022-08-28T22:01:57.326Z,14.34
2022-08-28T22:04:24.551Z,14.22
2022-08-28T22:06:51.104Z,14.26
2022-08-28T22:09:17.928Z,14.27
2022-08-28T22:11:44.491Z,14.12
2022-08-28T22:14:11.141Z,14.14
2022-08-28T22:16:37.851Z,14.24
2022-08-28T22:19:04.648Z,14.38
2022-08-28T22:21:49.999Z,14.29
2022-08-28T22:24:16.741Z,14.27
2022-08-28T22:26:44.132Z,14.05
2022-08-28T22:29:12.097Z,13.98
2022-08-28T22:31:43.941Z,14.03
2022-08-28T22:34:13.362Z,14.01
2022-08-28T22:36:39.957Z,13.91
2022-08-28T22:39:06.547Z,13.79
2022-08-28T22:41:33.441Z,13.78
2022-08-28T22:44:00.719Z,13.77
2022-08-28T22:46:27.909Z,13.73
2022-08-28T22:48:54.541Z,13.85
2022-08-28T22:51:21.306Z,14.04
2022-08-28T22:53:48.387Z,14.17
2022-08-28T22:56:17.367Z,14.08
2022-08-28T22:58:44.324Z,14.01
2022-08-28T23:01:16.252Z,13.85
2022-08-28T23:03:43.330Z,13.83
2022-08-28T23:06:10.080Z,13.86
2022-08-28T23:08:36.731Z,13.76
2022-08-28T23:11:03.680Z,13.60
2022-08-28T23:13:31.146Z,13.58
2022-08-28T23:15:57.916Z,13.55
2022-08-28T23:18:25.042Z,13.60
2022-08-28T23:20:52.525Z,13.77
2022-08-28T23:23:19.805Z,13.80
2022-08-28T23:25:46.769Z,13.74
2022-08-28T23:28:13.543Z,13.81
2022-08-28T23:30:48.375Z,13.78
2022-08-28T23:33:23.794Z,13.77
2022-08-28T23:35:51.545Z,13.73
2022-08-28T23:38:18.320Z,13.63
2022-08-28T23:40:46.069Z,13.67
2022-08-28T23:43:12.658Z,13.62
2022-08-28T23:48:09.387Z,13.70
2022-08-28T23:50:39.724Z,13.74
2022-08-28T23:53:08.556Z,13.69
2022-08-28T23:55:36.711Z,13.77
2022-08-28T23:58:03.883Z,13.75
